createdAt,value
2022-09-25T00:01:24.059Z,61.80
2022-09-25T00:03:51.260Z,59.50
2022-09-25T00:06:22.216Z,61.10
2022-09-25T00:08:49.427Z,58.30
2022-09-25T00:11:23.548Z,57.60
2022-09-25T00:13:50.904Z,59.10
2022-09-25T00:16:22.078Z,57.30
2022-09-25T00:19:07.705Z,56.60
2022-09-25T00:21:35.629Z,58.90
2022-09-25T00:24:07.690Z,57.40
2022-09-25T00:26:38.689Z,55.90
2022-09-25T00:29:07.721Z,58.30
2022-09-25T00:31:34.770Z,62.00
2022-09-25T00:34:04.184Z,54.80
2022-09-25T00:36:32.063Z,54.40
2022-09-25T00:39:00.069Z,55.20
2022-09-25T00:41:31.341Z,50.80
2022-09-25T00:44:00.350Z,48.90
2022-09-25T00:46:39.931Z,45.40
2022-09-25T00:49:13.739Z,45.80
2022-09-25T00:51:55.160Z,51.50
2022-09-25T00:54:34.762Z,45.10
2022-09-25T00:57:05.944Z,43.40
2022-09-25T00:59:39.815Z,41.50
2022-09-25T01:02:24.873Z,39.60
2022-09-25T01:04:57.417Z,41.60
2022-09-25T01:07:41.390Z,44.80
2022-09-25T01:10:13.667Z,45.20
2022-09-25T01:12:44.929Z,49.10
2022-09-25T01:15:13.564Z,47.30
2022-09-25T01:18:06.799Z,51.10
2022-09-25T01:24:07.623Z,43.20
2022-09-25T01:27:25.752Z,37.20
2022-09-25T01:30:13.741Z,36.90
2022-09-25T01:32:51.872Z,35.50
2022-09-25T01:35:47.209Z,36.20
2022-09-25T01:38:55.998Z,37.00
2022-09-25T01:41:28.461Z,38.40
2022-09-25T01:44:07.334Z,39.20
2022-09-25T01:46:48.491Z,38.90
2022-09-25T01:49:35.047Z,40.70
2022-09-25T01:52:06.646Z,38.20
2022-09-25T01:54:39.659Z,39.40
2022-09-25T01:57:19.431Z,38.00
2022-09-25T01:59:54.675Z,39.50
2022-09-25T02:02:26.323Z,39.20
2022-09-25T02:04:59.804Z,39.30
2022-09-25T02:07:31.848Z,38.30
2022-09-25T02:10:09.889Z,38.50
2022-09-25T02:13:03.312Z,38.30
2022-09-25T02:15:37.842Z,37.90
2022-09-25T02:18:30.439Z,39.20
2022-09-25T02:21:04.822Z,39.80
2022-09-25T02:24:04.542Z,36.00
2022-09-25T02:26:35.058Z,34.00
2022-09-25T02:29:03.919Z,35.10
2022-09-25T02:31:59.127Z,33.20
2022-09-25T02:34:26.191Z,33.90
2022-09-25T02:36:52.998Z,33.90
2022-09-25T02:39:22.772Z,33.90
2022-09-25T02:41:49.220Z,33.00
2022-09-25T02:45:01.576Z,33.70
2022-09-25T02:47:57.958Z,32.00
2022-09-25T02:50:51.544Z,31.30
2022-09-25T02:53:33.568Z,31.00
2022-09-25T02:56:08.451Z,32.00
2022-09-25T02:58:55.968Z,30.80
2022-09-25T03:01:26.236Z,28.70
2022-09-25T03:03:55.982Z,28.50
2022-09-25T03:06:22.988Z,28.60
2022-09-25T03:08:53.679Z,26.20
2022-09-25T03:11:21.147Z,27.90
2022-09-25T03:14:04.253Z,28.70
2022-09-25T03:19:24.803Z,25.10
2022-09-25T03:21:51.308Z,30.40
2022-09-25T03:24:18.021Z,29.90
2022-09-25T03:26:45.166Z,29.20
2022-09-25T03:29:14.245Z,27.90
2022-09-25T03:31:42.329Z,31.00
2022-09-25T03:34:10.116Z,27.00
2022-09-25T03:36:37.385Z,31.30
2022-09-25T03:39:05.486Z,30.00
2022-09-25T03:41:33.958Z,28.40
2022-09-25T03:44:03.920Z,29.00
2022-09-25T03:46:33.931Z,28.20
2022-09-25T03:49:01.796Z,28.50
2022-09-25T03:51:32.186Z,29.30
2022-09-25T03:53:59.371Z,29.60
2022-09-25T03:56:29.164Z,28.20
2022-09-25T03:58:56.561Z,28.20
2022-09-25T04:01:27.940Z,29.50
2022-09-25T04:03:55.136Z,29.50
2022-09-25T04:06:24.965Z,28.70
2022-09-25T04:08:52.559Z,30.20
2022-09-25T04:11:21.419Z,30.70
2022-09-25T04:13:52.968Z,28.40
2022-09-25T04:16:20.701Z,31.70
2022-09-25T04:18:49.567Z,31.10
2022-09-25T04:21:16.517Z,34.50
2022-09-25T04:24:03.493Z,36.20
2022-09-25T04:26:39.711Z,37.70
2022-09-25T04:29:09.498Z,40.80
2022-09-25T04:31:39.067Z,39.90
2022-09-25T04:34:06.236Z,37.10
2022-09-25T04:36:33.279Z,33.30
2022-09-25T04:39:01.070Z,29.90
2022-09-25T04:41:35.128Z,29.00
2022-09-25T04:44:04.896Z,29.60
2022-09-25T04:46:31.999Z,30.60
2022-09-25T04:48:59.155Z,30.70
2022-09-25T04:51:26.162Z,33.80
2022-09-25T04:53:56.355Z,36.70
2022-09-25T04:56:26.443Z,33.40
2022-09-25T04:58:53.355Z,32.70
2022-09-25T05:01:21.679Z,29.40
2022-09-25T05:03:54.464Z,28.00
2022-09-25T05:06:22.609Z,35.40
2022-09-25T05:08:50.924Z,32.30
2022-09-25T05:11:18.214Z,30.80
2022-09-25T05:13:49.692Z,32.00
2022-09-25T05:16:17.392Z,31.10
2022-09-25T05:18:43.960Z,33.40
2022-09-25T05:21:10.653Z,34.00
2022-09-25T05:23:37.408Z,32.40
2022-09-25T05:26:04.232Z,34.40
2022-09-25T05:28:32.352Z,34.00
2022-09-25T05:31:03.007Z,31.80
2022-09-25T05:33:33.720Z,34.00
2022-09-25T05:36:07.872Z,34.20
2022-09-25T05:38:37.408Z,32.30
2022-09-25T05:41:11.540Z,32.30
2022-09-25T05:43:42.364Z,34.50
2022-09-25T05:46:10.809Z,33.90
2022-09-25T05:48:37.613Z,34.50
2022-09-25T05:51:04.533Z,34.20
2022-09-25T05:53:31.189Z,32.90
2022-09-25T05:56:00.685Z,33.80
2022-09-25T05:58:30.765Z,34.60
2022-09-25T06:01:02.795Z,31.00
2022-09-25T06:03:30.162Z,30.70
2022-09-25T06:06:00.457Z,31.90
2022-09-25T06:08:30.471Z,35.50
2022-09-25T06:11:02.920Z,34.10
2022-09-25T06:13:34.420Z,35.00
2022-09-25T06:16:02.349Z,37.90
2022-09-25T06:18:29.139Z,37.90
2022-09-25T06:21:04.723Z,38.30
2022-09-25T06:23:32.136Z,37.00
2022-09-25T06:26:03.285Z,34.20
2022-09-25T06:28:30.677Z,34.90
2022-09-25T06:31:00.850Z,32.90
2022-09-25T06:33:30.154Z,34.80
2022-09-25T06:36:06.477Z,36.40
2022-09-25T06:38:33.802Z,36.50
2022-09-25T06:41:03.338Z,36.90
2022-09-25T06:43:32.403Z,37.10
2022-09-25T06:46:01.897Z,39.70
2022-09-25T06:48:29.786Z,36.90
2022-09-25T06:51:00.196Z,35.30
2022-09-25T06:53:29.251Z,33.10
2022-09-25T06:55:58.435Z,36.60
2022-09-25T06:58:26.431Z,33.40
2022-09-25T07:00:55.228Z,34.30
2022-09-25T07:03:41.404Z,31.20
2022-09-25T07:06:19.601Z,33.70
2022-09-25T07:08:47.614Z,31.70
2022-09-25T07:11:17.590Z,31.00
2022-09-25T07:13:44.432Z,32.50
2022-09-25T07:16:16.910Z,32.80
2022-09-25T07:18:45.493Z,31.00
2022-09-25T07:21:17.743Z,32.00
2022-09-25T07:23:49.593Z,31.70
2022-09-25T07:26:22.007Z,29.10
2022-09-25T07:28:54.614Z,27.80
2022-09-25T07:33:53.145Z,27.10
2022-09-25T07:36:21.099Z,25.90
2022-09-25T07:38:52.014Z,26.60
2022-09-25T07:41:21.879Z,27.20
2022-09-25T07:46:46.498Z,27.10
2022-09-25T07:49:13.491Z,25.90
2022-09-25T07:51:42.804Z,26.50
2022-09-25T07:54:09.298Z,25.50
2022-09-25T07:56:37.707Z,24.40
2022-09-25T07:59:04.727Z,25.30
2022-09-25T08:01:31.601Z,23.80
2022-09-25T08:03:58.918Z,25.60
2022-09-25T08:06:25.467Z,24.70
2022-09-25T08:08:52.215Z,22.10
2022-09-25T08:11:19.056Z,23.10
2022-09-25T08:13:46.473Z,21.60
2022-09-25T08:16:18.688Z,22.00
2022-09-25T08:18:46.879Z,21.30
2022-09-25T08:21:21.367Z,20.90
2022-09-25T08:23:50.889Z,18.30
2022-09-25T08:26:20.541Z,19.50
2022-09-25T08:28:47.289Z,20.20
2022-09-25T08:31:14.895Z,18.10
2022-09-25T08:33:46.396Z,18.70
2022-09-25T08:36:13.676Z,17.00
2022-09-25T08:38:40.134Z,17.30
2022-09-25T08:41:25.706Z,16.60
2022-09-25T08:44:08.698Z,16.80
2022-09-25T08:47:01.551Z,16.10
2022-09-25T08:49:35.957Z,15.30
2022-09-25T08:52:11.771Z,15.00
2022-09-25T08:54:42.069Z,14.50
2022-09-25T08:57:15.826Z,15.20
2022-09-25T08:59:49.111Z,14.90
2022-09-25T09:02:54.068Z,17.10
2022-09-25T09:05:38.221Z,15.90
2022-09-25T09:08:24.788Z,15.60
2022-09-25T09:10:57.946Z,15.90
2022-09-25T09:13:59.685Z,15.60
2022-09-25T09:16:26.518Z,14.40
2022-09-25T09:18:54.998Z,15.10
2022-09-25T09:21:35.305Z,14.20
2022-09-25T09:24:12.252Z,14.30
2022-09-25T09:27:00.337Z,14.90
2022-09-25T09:30:10.283Z,14.30
2022-09-25T09:32:45.977Z,13.50
2022-09-25T09:36:04.841Z,12.10
2022-09-25T09:38:58.981Z,11.80
2022-09-25T09:41:54.192Z,11.20
2022-09-25T09:45:11.499Z,10.60
2022-09-25T09:48:35.360Z,13.90
2022-09-25T09:51:32.585Z,13.70
2022-09-25T09:54:16.922Z,12.40
2022-09-25T09:56:49.176Z,11.90
2022-09-25T09:59:22.661Z,12.70
2022-09-25T10:02:03.221Z,13.80
2022-09-25T10:04:35.908Z,12.10
2022-09-25T10:07:12.444Z,12.00
2022-09-25T10:09:39.489Z,11.50
2022-09-25T10:12:21.656Z,9.90
2022-09-25T10:14:48.673Z,10.30
2022-09-25T10:17:16.717Z,12.70
2022-09-25T10:20:14.576Z,10.50
2022-09-25T10:22:44.499Z,10.70
2022-09-25T10:25:13.321Z,10.00
2022-09-25T10:27:45.630Z,11.00
2022-09-25T10:30:21.206Z,11.90
2022-09-25T10:33:16.152Z,10.60
2022-09-25T10:35:46.070Z,10.80
2022-09-25T10:38:43.870Z,9.50
2022-09-25T10:41:21.837Z,8.90
2022-09-25T10:43:55.089Z,8.20
2022-09-25T10:46:55.176Z,9.60
2022-09-25T10:49:43.860Z,9.40
2022-09-25T10:52:13.953Z,9.10
2022-09-25T10:54:45.556Z,9.60
2022-09-25T10:57:37.705Z,11.80
2022-09-25T11:00:21.543Z,9.40
2022-09-25T11:02:55.049Z,7.90
2022-09-25T11:05:42.113Z,8.10
2022-09-25T11:08:41.169Z,8.70
2022-09-25T11:11:10.160Z,9.10
2022-09-25T11:13:55.131Z,7.60
2022-09-25T11:16:54.132Z,8.10
2022-09-25T11:19:30.292Z,8.00
2022-09-25T11:22:28.481Z,8.00
2022-09-25T11:25:05.894Z,8.60
2022-09-25T11:27:56.094Z,6.60
2022-09-25T11:30:49.438Z,7.30
2022-09-25T11:33:33.935Z,7.20
2022-09-25T11:36:18.223Z,7.00
2022-09-25T11:39:24.614Z,6.90
2022-09-25T11:42:12.360Z,5.00
2022-09-25T11:45:10.359Z,4.70
2022-09-25T11:47:55.089Z,3.70
2022-09-25T11:50:49.272Z,3.80
2022-09-25T11:54:12.447Z,3.40
2022-09-25T11:57:34.245Z,3.40
2022-09-25T12:00:15.965Z,3.40
2022-09-25T12:03:16.545Z,3.50
2022-09-25T12:06:28.272Z,3.90
2022-09-25T12:09:10.473Z,4.00
2022-09-25T12:12:09.467Z,3.60
2022-09-25T12:15:41.943Z,3.70
2022-09-25T12:18:52.214Z,3.70
2022-09-25T12:22:19.159Z,3.10
2022-09-25T12:25:10.011Z,3.40
2022-09-25T12:28:24.233Z,3.50
2022-09-25T12:31:39.060Z,3.10
2022-09-25T12:34:38.209Z,3.30
2022-09-25T12:37:27.385Z,3.20
2022-09-25T12:40:05.529Z,3.20
2022-09-25T12:42:59.725Z,2.90
2022-09-25T12:45:40.115Z,3.00
2022-09-25T12:48:18.346Z,3.30
2022-09-25T12:51:46.282Z,2.80
2022-09-25T12:54:53.759Z,3.20
2022-09-25T12:57:45.568Z,2.90
2022-09-25T13:00:23.540Z,3.40
2022-09-25T13:03:26.232Z,2.90
2022-09-25T13:07:11.732Z,3.80
2022-09-25T13:11:03.994Z,3.50
2022-09-25T13:13:45.556Z,3.70
2022-09-25T13:16:17.369Z,3.20
2022-09-25T13:21:51.688Z,3.10
2022-09-25T13:27:49.935Z,3.30
2022-09-25T13:30:39.510Z,3.80
2022-09-25T13:33:46.568Z,3.00
2022-09-25T13:36:52.507Z,3.30
2022-09-25T13:40:10.382Z,3.60
2022-09-25T13:42:47.841Z,3.00
2022-09-25T13:45:36.888Z,3.20
2022-09-25T13:48:15.513Z,3.60
2022-09-25T13:50:50.233Z,4.10
2022-09-25T13:54:11.117Z,3.70
2022-09-25T13:56:41.928Z,3.70
2022-09-25T13:59:13.553Z,4.00
2022-09-25T14:01:48.297Z,3.50
2022-09-25T14:04:21.688Z,4.00
2022-09-25T14:06:57.622Z,4.00
2022-09-25T14:09:43.274Z,4.10
2022-09-25T14:12:31.507Z,4.20
2022-09-25T14:15:04.116Z,4.10
2022-09-25T14:17:37.479Z,3.90
2022-09-25T14:20:28.010Z,3.90
2022-09-25T14:23:02.945Z,4.60
2022-09-25T14:25:42.541Z,4.70
2022-09-25T14:28:30.115Z,4.40
2022-09-25T14:31:37.364Z,4.00
2022-09-25T14:34:43.710Z,4.20
2022-09-25T14:37:38.950Z,4.20
2022-09-25T14:40:39.068Z,4.10
2022-09-25T14:43:45.774Z,4.30
2022-09-25T14:46:18.173Z,4.30
2022-09-25T14:49:06.033Z,4.10
2022-09-25T14:51:44.068Z,5.20
2022-09-25T14:54:18.445Z,4.10
2022-09-25T14:56:54.487Z,3.90
2022-09-25T14:59:43.350Z,4.40
2022-09-25T15:02:22.640Z,4.70
2022-09-25T15:04:59.329Z,4.30
2022-09-25T15:07:27.553Z,4.30
2022-09-25T15:09:58.813Z,4.60
2022-09-25T15:12:36.265Z,4.50
2022-09-25T15:15:22.458Z,4.80
2022-09-25T15:17:59.823Z,4.60
2022-09-25T15:20:48.327Z,4.40
2022-09-25T15:23:24.573Z,4.70
2022-09-25T15:25:59.383Z,4.60
2022-09-25T15:28:31.751Z,4.30
2022-09-25T15:31:06.333Z,4.30
2022-09-25T15:33:39.268Z,4.60
2022-09-25T15:36:24.921Z,5.20
2022-09-25T15:38:59.776Z,5.10
2022-09-25T15:41:29.418Z,4.60
2022-09-25T15:44:22.998Z,5.60
2022-09-25T15:46:51.773Z,4.80
2022-09-25T15:49:49.029Z,4.80
2022-09-25T15:52:32.558Z,5.40
2022-09-25T15:55:05.301Z,5.80
2022-09-25T15:57:36.501Z,5.40
2022-09-25T16:00:50.655Z,6.20
2022-09-25T16:04:07.958Z,6.60
2022-09-25T16:06:59.511Z,6.10
2022-09-25T16:09:39.067Z,6.30
2022-09-25T16:12:21.336Z,6.00
2022-09-25T16:14:58.139Z,21.10
2022-09-25T16:18:09.780Z,25.10
2022-09-25T16:29:56.883Z,23.70
2022-09-25T16:48:41.393Z,30.40
2022-09-25T17:04:03.802Z,56.70
2022-09-25T17:07:53.616Z,57.00
2022-09-25T17:10:35.539Z,67.10
2022-09-25T17:13:19.184Z,94.10
2022-09-25T17:13:43.380Z,45.70
2022-09-25T17:15:57.009Z,99.60
2022-09-25T17:21:35.405Z,90.70
2022-09-25T17:24:34.990Z,84.20
2022-09-25T17:27:43.017Z,78.70
2022-09-25T17:30:20.214Z,63.70
2022-09-25T17:32:51.845Z,43.70
2022-09-25T17:35:50.554Z,36.20
2022-09-25T17:38:23.423Z,32.20
2022-09-25T17:41:05.694Z,30.90
2022-09-25T17:43:37.652Z,25.40
2022-09-25T17:46:12.413Z,24.80
2022-09-25T17:48:41.005Z,23.00
2022-09-25T17:51:19.187Z,21.10
2022-09-25T17:53:50.963Z,23.70
2022-09-25T17:56:20.446Z,26.20
2022-09-25T17:58:48.784Z,35.30
2022-09-25T18:01:53.076Z,35.80
2022-09-25T18:04:23.606Z,31.80
2022-09-25T18:06:51.605Z,29.00
2022-09-25T18:09:18.301Z,25.00
2022-09-25T18:11:45.467Z,24.10
2022-09-25T18:14:14.664Z,22.50
2022-09-25T18:16:43.776Z,27.00
2022-09-25T18:19:38.195Z,43.40
2022-09-25T18:22:18.038Z,58.80
2022-09-25T18:24:47.470Z,58.80
2022-09-25T18:27:17.344Z,51.10
2022-09-25T18:29:51.837Z,53.90
2022-09-25T18:32:19.497Z,54.30
2022-09-25T18:34:47.356Z,61.40
2022-09-25T18:37:14.168Z,76.50
2022-09-25T18:39:45.667Z,88.50
2022-09-25T18:42:12.330Z,106.20
2022-09-25T18:44:42.695Z,104.50
2022-09-25T18:47:15.376Z,107.20
2022-09-25T18:49:43.344Z,111.40
2022-09-25T18:52:11.489Z,113.30
2022-09-25T18:54:42.428Z,110.40
2022-09-25T18:57:12.657Z,107.90
2022-09-25T18:59:42.060Z,110.60
2022-09-25T19:02:38.754Z,106.10
2022-09-25T19:05:10.742Z,103.10
2022-09-25T19:07:44.454Z,104.00
2022-09-25T19:10:19.843Z,103.70
2022-09-25T19:12:50.643Z,100.90
2022-09-25T19:15:25.352Z,107.70
2022-09-25T19:17:59.322Z,101.20
2022-09-25T19:20:27.874Z,109.70
2022-09-25T19:22:55.276Z,86.60
2022-09-25T19:25:22.859Z,92.40
2022-09-25T19:27:50.511Z,93.10
2022-09-25T19:30:17.887Z,90.60
2022-09-25T19:32:46.040Z,89.40
2022-09-25T19:35:13.197Z,82.10
2022-09-25T19:37:41.782Z,86.40
2022-09-25T19:40:28.611Z,91.90
2022-09-25T19:42:55.490Z,94.00
2022-09-25T19:45:22.556Z,99.30
2022-09-25T19:47:54.070Z,98.40
2022-09-25T19:54:48.164Z,148.90
2022-09-25T19:57:22.239Z,110.00
2022-09-25T19:59:51.304Z,123.10
2022-09-25T20:02:21.641Z,122.10
2022-09-25T20:04:49.324Z,98.20
2022-09-25T20:07:19.336Z,86.80
2022-09-25T20:09:56.197Z,84.00
2022-09-25T20:12:44.150Z,69.70
2022-09-25T20:15:18.998Z,68.90
2022-09-25T20:18:01.760Z,64.40
2022-09-25T20:21:28.898Z,62.40
2022-09-25T20:24:06.814Z,68.80
2022-09-25T20:26:53.298Z,64.00
2022-09-25T20:29:21.626Z,59.80
2022-09-25T20:32:02.215Z,53.00
2022-09-25T20:34:32.983Z,52.00
2022-09-25T20:37:00.972Z,49.00
2022-09-25T20:39:28.038Z,48.40
2022-09-25T20:41:56.328Z,47.60
2022-09-25T20:44:31.739Z,48.40
2022-09-25T20:47:01.302Z,44.60
2022-09-25T20:49:33.789Z,40.90
2022-09-25T20:52:05.350Z,39.90
2022-09-25T20:54:34.322Z,36.50
2022-09-25T20:57:01.695Z,40.10
2022-09-25T20:59:28.345Z,35.90
2022-09-25T21:01:58.704Z,35.40
2022-09-25T21:04:29.130Z,36.10
2022-09-25T21:09:55.904Z,38.80
2022-09-25T21:12:23.365Z,39.20
2022-09-25T21:14:50.116Z,39.10
2022-09-25T21:17:24.725Z,39.40
2022-09-25T21:19:56.254Z,40.00
2022-09-25T21:22:32.181Z,38.80
2022-09-25T21:25:12.822Z,37.80
2022-09-25T21:27:39.926Z,37.90
2022-09-25T21:30:18.405Z,36.80
2022-09-25T21:32:47.382Z,37.80
2022-09-25T21:35:14.959Z,35.60
2022-09-25T21:37:42.271Z,35.80
2022-09-25T21:40:11.504Z,34.60
2022-09-25T21:42:43.319Z,35.20
2022-09-25T21:45:13.322Z,38.20
2022-09-25T21:47:40.564Z,35.10
2022-09-25T21:50:07.983Z,34.30
2022-09-25T21:52:34.588Z,35.10
2022-09-25T21:55:01.243Z,35.30
2022-09-25T21:57:32.898Z,37.50
2022-09-25T21:59:59.297Z,36.00
2022-09-25T22:02:29.892Z,34.80
2022-09-25T22:04:56.491Z,35.40
2022-09-25T22:07:26.004Z,36.20
2022-09-25T22:09:52.553Z,36.80
2022-09-25T22:12:19.027Z,35.60
2022-09-25T22:14:45.681Z,37.90
2022-09-25T22:17:12.183Z,35.50
2022-09-25T22:19:39.028Z,35.00
2022-09-25T22:22:07.284Z,35.10
2022-09-25T22:24:33.821Z,34.40
2022-09-25T22:27:00.363Z,33.90
2022-09-25T22:29:26.946Z,35.50
2022-09-25T22:31:53.527Z,36.30
2022-09-25T22:34:24.498Z,35.10
2022-09-25T22:37:23.369Z,39.40
2022-09-25T22:39:54.124Z,35.40
2022-09-25T22:42:23.116Z,33.90
2022-09-25T22:44:49.665Z,34.50
2022-09-25T22:47:16.209Z,33.30
2022-09-25T22:49:42.742Z,32.80
2022-09-25T22:52:09.202Z,33.70
2022-09-25T22:54:35.724Z,34.10
2022-09-25T22:57:02.324Z,33.00
2022-09-25T22:59:28.901Z,32.10
2022-09-25T23:01:55.567Z,32.50
2022-09-25T23:04:24.248Z,36.60
2022-09-25T23:06:51.524Z,37.00
2022-09-25T23:09:26.499Z,38.90
2022-09-25T23:11:55.036Z,39.10
2022-09-25T23:14:25.936Z,37.70
2022-09-25T23:16:53.856Z,36.30
2022-09-25T23:19:24.326Z,34.10
2022-09-25T23:21:51.768Z,31.80
2022-09-25T23:24:21.377Z,28.70
2022-09-25T23:26:48.654Z,31.10
2022-09-25T23:29:17.901Z,30.70
2022-09-25T23:31:46.413Z,28.00
2022-09-25T23:34:13.726Z,27.80
2022-09-25T23:36:40.718Z,28.90
2022-09-25T23:39:08.175Z,28.30
2022-09-25T23:41:37.652Z,27.90
2022-09-25T23:44:07.888Z,27.30
2022-09-25T23:46:38.507Z,27.40
2022-09-25T23:49:05.361Z,28.10
2022-09-25T23:51:32.823Z,27.30
2022-09-25T23:54:00.625Z,28.20
2022-09-25T23:56:32.325Z,29.30
2022-09-25T23:59:02.833Z,28.90
